createdAt,value
2022-08-29T00:00:32.361Z,14.50
2022-08-29T00:03:01.164Z,14.40
2022-08-29T00:05:32.021Z,14.40
2022-08-29T00:08:00.804Z,14.40
2022-08-29T00:10:29.287Z,14.30
2022-08-29T00:12:57.646Z,14.20
2022-08-29T00:15:24.990Z,14.20
2022-08-29T00:17:51.684Z,14.20
2022-08-29T00:20:21.876Z,14.10
2022-08-29T00:22:58.411Z,14.10
2022-08-29T00:25:26.489Z,14.00
2022-08-29T00:27:53.410Z,13.90
2022-08-29T00:30:21.651Z,13.90
2022-08-29T00:32:48.566Z,13.80
2022-08-29T00:35:19.156Z,13.80
2022-08-29T00:37:45.918Z,13.70
2022-08-29T00:40:17.656Z,13.70
2022-08-29T00:42:44.419Z,13.60
2022-08-29T00:45:13.000Z,13.60
2022-08-29T00:47:44.864Z,13.60
2022-08-29T00:50:19.529Z,13.50
2022-08-29T00:52:48.470Z,13.50
2022-08-29T00:55:20.237Z,13.50
2022-08-29T00:57:53.065Z,13.50
2022-08-29T01:00:20.076Z,13.40
2022-08-29T01:02:48.187Z,13.40
2022-08-29T01:05:16.191Z,13.30
2022-08-29T01:07:44.839Z,13.30
2022-08-29T01:10:33.013Z,13.20
2022-08-29T01:13:00.256Z,13.20
2022-08-29T01:15:30.472Z,13.10
2022-08-29T01:17:59.072Z,13.10
2022-08-29T01:20:44.865Z,13.00
2022-08-29T01:23:40.476Z,13.00
2022-08-29T01:26:10.397Z,12.90
2022-08-29T01:28:41.641Z,12.80
2022-08-29T01:31:37.534Z,12.80
2022-08-29T01:34:04.922Z,12.80
2022-08-29T01:37:00.512Z,12.80
2022-08-29T01:39:32.247Z,12.70
2022-08-29T01:42:01.285Z,12.70
2022-08-29T01:44:28.323Z,12.60
2022-08-29T01:47:02.731Z,12.60
2022-08-29T01:49:31.368Z,12.50
2022-08-29T01:51:58.115Z,12.50
2022-08-29T01:54:24.840Z,12.50
2022-08-29T01:56:53.126Z,12.40
2022-08-29T01:59:27.007Z,12.40
2022-08-29T02:02:02.840Z,12.30
2022-08-29T02:04:30.055Z,12.30
2022-08-29T02:06:57.954Z,12.30
2022-08-29T02:09:26.010Z,12.20
2022-08-29T02:11:54.294Z,12.20
2022-08-29T02:14:21.924Z,12.10
2022-08-29T02:16:48.693Z,12.10
2022-08-29T02:19:16.348Z,12.00
2022-08-29T02:21:43.245Z,12.00
2022-08-29T02:24:24.972Z,12.00
2022-08-29T02:26:54.262Z,12.00
2022-08-29T02:29:20.935Z,11.90
2022-08-29T02:31:47.663Z,11.90
2022-08-29T02:34:14.919Z,11.90
2022-08-29T02:36:41.736Z,11.90
2022-08-29T02:39:10.815Z,11.80
2022-08-29T02:41:37.814Z,11.70
2022-08-29T02:44:05.046Z,11.70
2022-08-29T02:46:31.990Z,11.70
2022-08-29T02:49:01.215Z,11.60
2022-08-29T02:51:31.412Z,11.60
2022-08-29T02:53:59.281Z,11.60
2022-08-29T02:56:26.175Z,11.60
2022-08-29T02:58:52.913Z,11.50
2022-08-29T03:01:21.646Z,11.50
2022-08-29T03:03:50.251Z,11.40
2022-08-29T03:06:17.517Z,11.40
2022-08-29T03:08:44.263Z,11.30
2022-08-29T03:11:11.016Z,11.30
2022-08-29T03:13:38.505Z,11.20
2022-08-29T03:16:05.757Z,11.20
2022-08-29T03:18:33.799Z,11.20
2022-08-29T03:21:00.717Z,11.10
2022-08-29T03:23:27.500Z,11.10
2022-08-29T03:25:55.335Z,11.10
2022-08-29T03:28:22.082Z,11.10
2022-08-29T03:30:49.405Z,11.00
2022-08-29T03:33:17.114Z,11.00
2022-08-29T03:35:43.862Z,11.00
2022-08-29T03:38:10.559Z,10.90
2022-08-29T03:40:40.029Z,10.90
2022-08-29T03:43:06.813Z,10.80
2022-08-29T03:45:33.582Z,10.80
2022-08-29T03:48:00.279Z,10.80
2022-08-29T03:50:26.961Z,10.80
2022-08-29T03:52:53.668Z,10.70
2022-08-29T03:55:20.789Z,10.70
2022-08-29T03:57:47.854Z,10.70
2022-08-29T04:00:16.852Z,10.60
2022-08-29T04:02:48.390Z,10.70
2022-08-29T04:05:17.981Z,10.60
2022-08-29T04:07:51.010Z,10.60
2022-08-29T04:10:27.306Z,10.50
2022-08-29T04:12:55.033Z,10.50
2022-08-29T04:15:23.697Z,10.50
2022-08-29T04:17:54.094Z,10.40
2022-08-29T04:20:25.920Z,10.40
2022-08-29T04:22:54.530Z,10.30
2022-08-29T04:25:22.645Z,10.30
2022-08-29T04:27:49.638Z,10.30
2022-08-29T04:30:19.297Z,10.30
2022-08-29T04:32:46.190Z,10.30
2022-08-29T04:35:13.949Z,10.20
2022-08-29T04:37:41.747Z,10.20
2022-08-29T04:40:10.947Z,10.20
2022-08-29T04:42:38.582Z,10.20
2022-08-29T04:45:06.891Z,10.20
2022-08-29T04:47:36.672Z,10.10
2022-08-29T04:50:04.107Z,10.10
2022-08-29T04:52:30.857Z,10.10
2022-08-29T04:54:57.788Z,10.00
2022-08-29T04:57:24.791Z,10.00
2022-08-29T05:00:08.567Z,10.00
2022-08-29T05:02:35.336Z,10.00
2022-08-29T05:05:04.687Z,9.90
2022-08-29T05:07:31.394Z,9.90
2022-08-29T05:10:04.213Z,9.90
2022-08-29T05:12:33.675Z,9.90
2022-08-29T05:15:01.021Z,9.90
2022-08-29T05:17:28.194Z,9.90
2022-08-29T05:19:55.404Z,9.90
2022-08-29T05:22:22.312Z,10.00
2022-08-29T05:24:50.033Z,10.00
2022-08-29T05:27:22.193Z,10.00
2022-08-29T05:29:51.484Z,10.00
2022-08-29T05:32:20.782Z,10.00
2022-08-29T05:34:49.246Z,10.00
2022-08-29T05:37:19.787Z,10.00
2022-08-29T05:39:47.339Z,10.00
2022-08-29T05:42:17.091Z,10.00
2022-08-29T05:44:44.296Z,10.00
2022-08-29T05:47:12.786Z,10.10
2022-08-29T05:49:41.926Z,10.10
2022-08-29T05:52:10.381Z,10.10
2022-08-29T05:54:39.358Z,10.20
2022-08-29T05:57:08.249Z,10.20
2022-08-29T05:59:35.603Z,10.20
2022-08-29T06:02:02.609Z,10.30
2022-08-29T06:04:30.475Z,10.40
2022-08-29T06:06:57.224Z,10.50
2022-08-29T06:09:23.969Z,10.60
2022-08-29T06:11:53.118Z,10.70
2022-08-29T06:14:20.208Z,10.70
2022-08-29T06:16:46.997Z,10.80
2022-08-29T06:19:13.946Z,10.90
2022-08-29T06:21:41.031Z,11.00
2022-08-29T06:24:08.188Z,11.10
2022-08-29T06:26:35.435Z,11.20
2022-08-29T06:29:06.314Z,11.20
2022-08-29T06:31:33.224Z,11.30
2022-08-29T06:34:03.248Z,11.40
2022-08-29T06:36:31.273Z,11.40
2022-08-29T06:38:59.946Z,11.40
2022-08-29T06:41:27.514Z,11.50
2022-08-29T06:43:57.488Z,11.50
2022-08-29T06:46:31.539Z,11.50
2022-08-29T06:49:00.347Z,11.60
2022-08-29T06:51:32.662Z,11.60
2022-08-29T06:54:05.030Z,11.60
2022-08-29T06:56:34.492Z,11.70
2022-08-29T06:59:04.893Z,11.70
2022-08-29T07:01:31.846Z,11.80
2022-08-29T07:04:04.401Z,11.90
2022-08-29T07:06:32.412Z,11.90
2022-08-29T07:09:00.051Z,12.00
2022-08-29T07:11:30.098Z,12.00
2022-08-29T07:14:00.231Z,12.10
2022-08-29T07:16:27.981Z,12.20
2022-08-29T07:18:55.274Z,12.30
2022-08-29T07:21:24.301Z,12.30
2022-08-29T07:23:52.457Z,12.40
2022-08-29T07:26:28.845Z,12.50
2022-08-29T07:28:59.549Z,12.60
2022-08-29T07:31:30.849Z,12.70
2022-08-29T07:34:02.327Z,12.90
2022-08-29T07:36:31.098Z,13.00
2022-08-29T07:38:57.910Z,13.20
2022-08-29T07:41:25.438Z,13.30
2022-08-29T07:43:52.233Z,13.40
2022-08-29T07:46:20.388Z,13.50
2022-08-29T07:48:48.232Z,13.60
2022-08-29T07:51:17.625Z,13.70
2022-08-29T07:53:45.128Z,13.80
2022-08-29T07:56:14.580Z,14.00
2022-08-29T07:58:41.621Z,14.10
2022-08-29T08:01:09.643Z,14.20
2022-08-29T08:03:42.444Z,14.30
2022-08-29T08:06:10.926Z,14.50
2022-08-29T08:08:38.847Z,14.50
2022-08-29T08:11:08.720Z,14.60
2022-08-29T08:13:36.332Z,14.70
2022-08-29T08:16:08.887Z,14.90
2022-08-29T08:18:38.391Z,15.00
2022-08-29T08:21:06.565Z,15.10
2022-08-29T08:23:33.388Z,15.20
2022-08-29T08:26:00.956Z,15.30
2022-08-29T08:28:29.153Z,15.50
2022-08-29T08:30:56.625Z,15.50
2022-08-29T08:33:23.585Z,15.70
2022-08-29T08:35:50.661Z,15.80
2022-08-29T08:38:18.320Z,15.90
2022-08-29T08:41:00.731Z,16.10
2022-08-29T08:43:52.342Z,16.20
2022-08-29T08:46:43.158Z,16.40
2022-08-29T08:49:25.857Z,16.50
2022-08-29T08:52:06.621Z,16.80
2022-08-29T08:54:42.594Z,16.90
2022-08-29T08:57:12.461Z,17.00
2022-08-29T08:59:45.327Z,17.20
2022-08-29T09:02:18.189Z,17.40
2022-08-29T09:05:19.591Z,17.60
2022-08-29T09:08:06.082Z,17.80
2022-08-29T09:10:59.165Z,18.00
2022-08-29T09:16:03.027Z,18.30
2022-08-29T09:18:41.629Z,18.50
2022-08-29T09:21:39.581Z,18.60
2022-08-29T09:24:08.615Z,18.70
2022-08-29T09:26:35.434Z,18.90
2022-08-29T09:29:02.923Z,19.00
2022-08-29T09:31:33.007Z,19.20
2022-08-29T09:34:12.115Z,19.30
2022-08-29T09:36:48.663Z,19.50
2022-08-29T09:39:33.773Z,19.70
2022-08-29T09:42:23.048Z,19.80
2022-08-29T09:44:56.806Z,20.00
2022-08-29T09:47:32.856Z,20.10
2022-08-29T09:50:18.836Z,20.30
2022-08-29T09:53:00.588Z,20.40
2022-08-29T09:55:32.346Z,20.60
2022-08-29T09:58:01.972Z,20.80
2022-08-29T10:00:39.057Z,20.90
2022-08-29T10:03:10.127Z,21.10
2022-08-29T10:05:42.392Z,21.30
2022-08-29T10:08:28.111Z,21.50
2022-08-29T10:10:58.692Z,21.70
2022-08-29T10:13:45.902Z,21.90
2022-08-29T10:16:28.045Z,22.20
2022-08-29T10:19:03.349Z,22.40
2022-08-29T10:22:08.527Z,22.50
2022-08-29T10:24:55.609Z,22.70
2022-08-29T10:27:32.430Z,22.90
2022-08-29T10:30:14.130Z,23.00
2022-08-29T10:32:58.805Z,23.30
2022-08-29T10:35:35.474Z,23.40
2022-08-29T10:38:38.952Z,23.60
2022-08-29T10:41:14.527Z,23.70
2022-08-29T10:43:57.944Z,23.90
2022-08-29T10:46:42.678Z,24.10
2022-08-29T10:49:35.837Z,24.30
2022-08-29T10:52:19.652Z,24.50
2022-08-29T10:55:01.318Z,24.70
2022-08-29T10:58:03.801Z,24.80
2022-08-29T11:00:43.563Z,25.00
2022-08-29T11:03:40.283Z,25.10
2022-08-29T11:06:15.188Z,25.30
2022-08-29T11:08:46.824Z,25.30
2022-08-29T11:11:20.708Z,25.40
2022-08-29T11:13:52.781Z,25.60
2022-08-29T11:16:28.663Z,25.70
2022-08-29T11:19:02.343Z,26.00
2022-08-29T11:21:35.148Z,26.20
2022-08-29T11:24:04.145Z,26.30
2022-08-29T11:26:43.759Z,26.50
2022-08-29T11:29:50.934Z,26.70
2022-08-29T11:32:27.587Z,26.90
2022-08-29T11:35:18.289Z,27.10
2022-08-29T11:38:12.284Z,27.10
2022-08-29T11:43:53.591Z,27.30
2022-08-29T11:46:39.531Z,27.50
2022-08-29T11:49:35.960Z,27.70
2022-08-29T11:52:08.423Z,27.90
2022-08-29T11:54:35.094Z,28.00
2022-08-29T11:57:31.967Z,28.10
2022-08-29T12:00:01.766Z,28.30
2022-08-29T12:02:28.418Z,28.40
2022-08-29T12:04:59.193Z,28.60
2022-08-29T12:07:48.021Z,28.70
2022-08-29T12:10:26.338Z,28.90
2022-08-29T12:12:58.890Z,28.90
2022-08-29T12:15:37.416Z,29.00
2022-08-29T12:18:13.205Z,29.20
2022-08-29T12:20:52.427Z,29.20
2022-08-29T12:23:25.012Z,29.20
2022-08-29T12:26:16.262Z,29.30
2022-08-29T12:28:45.290Z,29.40
2022-08-29T12:31:38.317Z,29.70
2022-08-29T12:34:23.626Z,29.90
2022-08-29T12:37:34.635Z,30.20
2022-08-29T12:40:28.079Z,30.40
2022-08-29T12:43:20.200Z,30.60
2022-08-29T12:45:48.884Z,30.70
2022-08-29T12:48:24.612Z,30.80
2022-08-29T12:50:52.772Z,30.90
2022-08-29T12:53:27.803Z,31.10
2022-08-29T12:56:00.439Z,31.20
2022-08-29T12:58:38.682Z,31.30
2022-08-29T13:01:16.761Z,31.30
2022-08-29T13:04:09.749Z,31.40
2022-08-29T13:06:37.578Z,31.60
2022-08-29T13:09:06.479Z,31.80
2022-08-29T13:11:33.844Z,31.90
2022-08-29T13:14:13.535Z,32.00
2022-08-29T13:16:40.664Z,32.10
2022-08-29T13:19:21.463Z,32.20
2022-08-29T13:21:48.336Z,32.00
2022-08-29T13:24:20.595Z,32.00
2022-08-29T13:27:05.516Z,32.10
2022-08-29T13:29:41.942Z,32.20
2022-08-29T13:32:26.770Z,32.10
2022-08-29T13:35:21.461Z,31.90
2022-08-29T13:38:16.452Z,31.80
2022-08-29T13:40:49.384Z,32.10
2022-08-29T13:43:36.094Z,32.30
2022-08-29T13:46:27.215Z,32.50
2022-08-29T13:49:03.508Z,32.70
2022-08-29T13:51:30.642Z,32.70
2022-08-29T13:53:57.419Z,32.60
2022-08-29T13:56:33.698Z,32.70
2022-08-29T13:59:00.622Z,32.60
2022-08-29T14:02:07.080Z,32.30
2022-08-29T14:04:36.860Z,32.10
2022-08-29T14:07:02.363Z,31.80
2022-08-29T14:09:39.153Z,31.90
2022-08-29T14:12:07.011Z,31.90
2022-08-29T14:14:33.770Z,31.90
2022-08-29T14:17:00.675Z,32.10
2022-08-29T14:19:29.155Z,31.90
2022-08-29T14:22:00.270Z,31.80
2022-08-29T14:24:29.245Z,31.60
2022-08-29T14:27:01.634Z,31.70
2022-08-29T14:29:33.844Z,31.80
2022-08-29T14:32:03.469Z,31.60
2022-08-29T14:34:32.533Z,31.50
2022-08-29T14:37:01.257Z,31.60
2022-08-29T14:39:28.504Z,31.60
2022-08-29T14:41:55.692Z,31.80
2022-08-29T14:44:22.966Z,31.90
2022-08-29T14:46:50.499Z,31.80
2022-08-29T14:49:17.884Z,32.10
2022-08-29T14:51:44.865Z,32.10
2022-08-29T14:54:12.630Z,32.20
2022-08-29T14:56:50.559Z,32.00
2022-08-29T14:59:19.854Z,31.70
2022-08-29T15:01:51.326Z,31.60
2022-08-29T15:04:27.416Z,31.60
2022-08-29T15:07:02.448Z,31.50
2022-08-29T15:09:29.167Z,31.40
2022-08-29T15:11:55.880Z,31.30
2022-08-29T15:14:22.567Z,31.50
2022-08-29T15:16:49.293Z,31.40
2022-08-29T15:20:17.806Z,31.30
2022-08-29T15:22:03.167Z,31.10
2022-08-29T15:24:29.982Z,31.20
2022-08-29T15:26:57.271Z,31.30
2022-08-29T15:29:24.460Z,31.30
2022-08-29T15:31:57.041Z,31.10
2022-08-29T15:34:27.631Z,30.90
2022-08-29T15:36:55.845Z,31.00
2022-08-29T15:39:23.403Z,31.00
2022-08-29T15:41:50.149Z,31.10
2022-08-29T15:44:16.906Z,30.90
2022-08-29T15:46:50.949Z,31.00
2022-08-29T15:49:18.932Z,31.20
2022-08-29T15:51:46.193Z,31.30
2022-08-29T15:54:13.501Z,31.10
2022-08-29T15:56:40.452Z,31.30
2022-08-29T15:59:10.192Z,31.40
2022-08-29T16:01:43.619Z,31.40
2022-08-29T16:04:10.717Z,31.40
2022-08-29T16:06:38.772Z,31.10
2022-08-29T16:09:15.356Z,31.00
2022-08-29T16:11:44.602Z,30.80
2022-08-29T16:16:58.484Z,30.60
2022-08-29T16:19:25.601Z,30.60
2022-08-29T16:21:52.755Z,30.60
2022-08-29T16:24:21.692Z,30.80
2022-08-29T16:26:48.378Z,30.80
2022-08-29T16:29:15.075Z,31.00
2022-08-29T16:31:51.805Z,31.10
2022-08-29T16:34:18.893Z,31.10
2022-08-29T16:36:45.559Z,31.10
2022-08-29T16:39:13.292Z,31.10
2022-08-29T16:41:40.324Z,31.10
2022-08-29T16:44:08.155Z,31.00
2022-08-29T16:46:34.880Z,30.70
2022-08-29T16:49:03.051Z,30.70
2022-08-29T16:51:29.728Z,30.70
2022-08-29T16:53:59.824Z,30.70
2022-08-29T16:56:27.218Z,30.80
2022-08-29T16:58:59.992Z,30.70
2022-08-29T17:01:27.467Z,30.80
2022-08-29T17:03:54.471Z,30.70
2022-08-29T17:06:21.485Z,30.60
2022-08-29T17:08:48.158Z,30.50
2022-08-29T17:11:15.560Z,30.40
2022-08-29T17:13:42.878Z,30.20
2022-08-29T17:16:10.572Z,30.20
2022-08-29T17:18:38.055Z,30.10
2022-08-29T17:21:05.417Z,30.00
2022-08-29T17:23:33.278Z,29.90
2022-08-29T17:26:00.789Z,29.80
2022-08-29T17:28:27.587Z,29.70
2022-08-29T17:30:55.034Z,29.60
2022-08-29T17:33:21.943Z,29.50
2022-08-29T17:35:48.684Z,29.40
2022-08-29T17:38:15.947Z,29.40
2022-08-29T17:40:43.148Z,29.10
2022-08-29T17:43:10.326Z,29.00
2022-08-29T17:45:37.396Z,28.90
2022-08-29T17:48:05.109Z,28.80
2022-08-29T17:50:32.608Z,28.80
2022-08-29T17:52:59.329Z,28.60
2022-08-29T17:55:29.943Z,28.40
2022-08-29T17:57:58.677Z,28.30
2022-08-29T18:00:25.606Z,28.30
2022-08-29T18:02:52.763Z,28.20
2022-08-29T18:05:19.667Z,28.10
2022-08-29T18:07:46.473Z,27.90
2022-08-29T18:10:15.500Z,27.80
2022-08-29T18:12:42.340Z,27.70
2022-08-29T18:15:10.356Z,27.60
2022-08-29T18:17:38.233Z,27.40
2022-08-29T18:20:07.673Z,27.30
2022-08-29T18:22:35.348Z,27.10
2022-08-29T18:25:07.264Z,27.10
2022-08-29T18:27:33.982Z,27.00
2022-08-29T18:30:03.830Z,27.00
2022-08-29T18:32:37.205Z,26.90
2022-08-29T18:35:05.030Z,26.80
2022-08-29T18:37:31.772Z,26.80
2022-08-29T18:39:58.748Z,26.70
2022-08-29T18:42:39.918Z,26.60
2022-08-29T18:45:08.195Z,26.50
2022-08-29T18:47:34.932Z,26.30
2022-08-29T18:50:25.254Z,26.30
2022-08-29T18:52:53.142Z,26.20
2022-08-29T18:55:20.483Z,26.00
2022-08-29T18:57:48.158Z,25.90
2022-08-29T19:00:16.059Z,25.90
2022-08-29T19:02:43.032Z,25.80
2022-08-29T19:05:10.361Z,25.70
2022-08-29T19:07:37.374Z,25.70
2022-08-29T19:10:05.779Z,25.60
2022-08-29T19:12:32.650Z,25.50
2022-08-29T19:15:00.116Z,25.40
2022-08-29T19:17:26.984Z,25.40
2022-08-29T19:20:12.385Z,25.20
2022-08-29T19:22:39.428Z,25.10
2022-08-29T19:25:09.030Z,25.00
2022-08-29T19:27:43.634Z,24.90
2022-08-29T19:30:13.457Z,24.80
2022-08-29T19:32:40.402Z,24.70
2022-08-29T19:35:07.969Z,24.50
2022-08-29T19:37:34.698Z,24.40
2022-08-29T19:40:02.044Z,24.30
2022-08-29T19:42:28.729Z,24.10
2022-08-29T19:44:55.491Z,23.90
2022-08-29T19:47:23.514Z,23.80
2022-08-29T19:49:51.010Z,23.70
2022-08-29T19:52:17.988Z,23.60
2022-08-29T19:54:44.745Z,23.40
2022-08-29T19:57:13.389Z,23.40
2022-08-29T19:59:41.474Z,23.30
2022-08-29T20:02:09.418Z,23.20
2022-08-29T20:04:36.347Z,23.10
2022-08-29T20:07:05.466Z,23.00
2022-08-29T20:09:32.302Z,22.80
2022-08-29T20:11:59.389Z,22.80
2022-08-29T20:14:26.160Z,22.70
2022-08-29T20:16:53.129Z,22.60
2022-08-29T20:19:21.240Z,22.40
2022-08-29T20:21:49.118Z,22.30
2022-08-29T20:24:16.893Z,22.20
2022-08-29T20:26:44.634Z,22.20
2022-08-29T20:29:12.166Z,22.10
2022-08-29T20:31:39.542Z,22.00
2022-08-29T20:34:06.593Z,21.90
2022-08-29T20:36:51.820Z,21.80
2022-08-29T20:39:20.931Z,21.70
2022-08-29T20:41:55.233Z,21.50
2022-08-29T20:44:25.100Z,21.50
2022-08-29T20:46:52.360Z,21.30
2022-08-29T20:49:22.505Z,21.30
2022-08-29T20:51:50.591Z,21.20
2022-08-29T20:54:20.635Z,21.10
2022-08-29T20:56:48.560Z,20.90
2022-08-29T20:59:15.836Z,20.80
2022-08-29T21:01:43.565Z,20.80
2022-08-29T21:04:30.453Z,20.70
2022-08-29T21:07:01.038Z,20.60
2022-08-29T21:09:28.714Z,20.50
2022-08-29T21:11:56.152Z,20.40
2022-08-29T21:14:23.517Z,20.40
2022-08-29T21:16:51.992Z,20.30
2022-08-29T21:19:19.254Z,20.20
2022-08-29T21:21:46.906Z,20.10
2022-08-29T21:24:13.653Z,20.00
2022-08-29T21:26:40.479Z,20.00
2022-08-29T21:29:08.399Z,19.90
2022-08-29T21:31:35.666Z,19.80
2022-08-29T21:34:06.770Z,19.80
2022-08-29T21:36:35.843Z,19.70
2022-08-29T21:39:03.741Z,19.70
2022-08-29T21:41:31.991Z,19.60
2022-08-29T21:43:58.966Z,19.50
2022-08-29T21:46:31.544Z,19.50
2022-08-29T21:49:02.922Z,19.40
2022-08-29T21:51:30.791Z,19.40
2022-08-29T21:53:58.484Z,19.40
2022-08-29T21:56:27.701Z,19.30
2022-08-29T21:58:55.971Z,19.30
2022-08-29T22:01:27.544Z,19.20
2022-08-29T22:03:55.472Z,19.10
2022-08-29T22:06:24.466Z,19.10
2022-08-29T22:08:55.211Z,19.10
2022-08-29T22:11:37.170Z,19.00
2022-08-29T22:14:06.487Z,19.00
2022-08-29T22:16:33.604Z,18.90
2022-08-29T22:19:02.969Z,18.90
2022-08-29T22:21:33.193Z,18.80
2022-08-29T22:24:01.185Z,18.80
2022-08-29T22:26:29.112Z,18.70
2022-08-29T22:28:56.682Z,18.70
2022-08-29T22:31:24.014Z,18.70
2022-08-29T22:33:51.440Z,18.60
2022-08-29T22:36:19.251Z,18.60
2022-08-29T22:38:47.540Z,18.50
2022-08-29T22:41:22.335Z,18.50
2022-08-29T22:43:54.704Z,18.40
2022-08-29T22:46:36.098Z,18.40
2022-08-29T22:49:02.951Z,18.30
2022-08-29T22:51:29.676Z,18.30
2022-08-29T22:54:14.865Z,18.20
2022-08-29T22:56:43.550Z,18.20
2022-08-29T22:59:10.836Z,18.10
2022-08-29T23:01:42.756Z,18.10
2022-08-29T23:04:10.256Z,18.00
2022-08-29T23:06:37.015Z,18.00
2022-08-29T23:09:05.162Z,18.00
2022-08-29T23:11:32.495Z,18.00
2022-08-29T23:13:59.231Z,17.90
2022-08-29T23:16:26.255Z,17.90
2022-08-29T23:18:53.339Z,17.80
2022-08-29T23:21:22.812Z,17.80
2022-08-29T23:23:50.852Z,17.80
2022-08-29T23:26:18.163Z,17.70
2022-08-29T23:28:45.677Z,17.70
2022-08-29T23:31:13.655Z,17.60
2022-08-29T23:33:40.641Z,17.60
2022-08-29T23:36:07.782Z,17.60
2022-08-29T23:38:34.503Z,17.50
2022-08-29T23:41:02.123Z,17.60
2022-08-29T23:43:30.660Z,17.50
2022-08-29T23:46:04.667Z,17.50
2022-08-29T23:48:32.490Z,17.50
2022-08-29T23:51:00.135Z,17.50
2022-08-29T23:53:26.960Z,17.40
2022-08-29T23:55:53.969Z,17.40
2022-08-29T23:58:20.699Z,17.40
